Skip Navigation Links Skip Navigation Links

Current Weather

Chicago Midway, Chicago

For information only: do not use for flight planning or navigation.
Latest weather
Observation time Friday, February 21, 2020 1:53 AM CST
Local time Friday, February 21, 2020 2:45 AM CST
Flight conditions Visual Meteorological Conditions
Winds
Wind direction West (260°)
Wind speed 7 mph
Visibility 10 mi.
Sky condition
Ceiling unlimited
Sky clear
Temperature 13°F
Dewpoint 1°F
Altimeter 30.64 in.Hg
Derived measurements
Relative humidity 58%
Wind chill 3°F
Density altitude -3386 ft.
Sea-level pressure 30.69 in.Hg
Remarks
Automated weather observing station with precipitation discriminator.
METAR KMDW 210753Z 26006KT 10SM CLR M11/M17 A3064 RMK AO2 SLP394 T11061172

Settings

Location code

InnerDrive.Weather 4.0.6770.0 Release CLR 4.0.30319.42000
Copyright ©2018 Inner Drive Technology. All rights reserved. Portions Copyright ©1986-2018 David Braverman.

Find weather

Site navigation


Skip Navigation Links

Place info

Page info

PayPal - The safer, easier way to pay online!

Return home.

Copyright ©2020 Inner Drive Technology. Purveyors of fine, hand-crafted computer software. Page printed 2020-02-21T08:45:41 UTC.